Time;durP1;ratioP1;P1;durP2;ratioP2;P2;SDS_P1;SDS_P2;PMS_P1;PMS_P2;Temp;Humidity;BMP_temperature;BMP_pressure;BME280_temperature;BME280_humidity;BME280_pressure;Samples;Min_cycle;Max_cycle;Signal;HPM_P1;HPM_P2
2024/01/06 00:02:06;;;;;;;30.45;15.48;;;6.00;99.90;;;;;;5046931;28;20052;-71
2024/01/06 00:04:34;;;;;;;27.15;14.63;;;6.00;99.90;;;;;;5045399;28;20059;-71
2024/01/06 00:07:02;;;;;;;32.72;15.02;;;6.10;99.90;;;;;;5045830;28;20029;-71
2024/01/06 00:09:27;;;;;;;29.20;14.38;;;6.00;99.90;;;;;;5046770;28;20391;-71
2024/01/06 00:11:56;;;;;;;34.85;16.02;;;6.00;99.90;;;;;;5042212;28;20530;-71
2024/01/06 00:14:23;;;;;;;33.35;16.23;;;6.10;99.90;;;;;;5047141;28;20028;-71
2024/01/06 00:16:49;;;;;;;30.80;15.65;;;6.00;99.90;;;;;;5041238;28;20475;-71
2024/01/06 00:19:17;;;;;;;32.92;15.88;;;6.10;99.90;;;;;;5045174;28;20036;-71
2024/01/06 00:21:43;;;;;;;32.83;15.73;;;6.00;99.90;;;;;;5044423;28;20468;-71
2024/01/06 00:24:08;;;;;;;31.77;15.32;;;6.00;99.90;;;;;;5043538;28;20075;-71
2024/01/06 00:26:34;;;;;;;31.92;14.98;;;6.00;99.90;;;;;;5045911;28;20025;-71
2024/01/06 00:29:02;;;;;;;29.88;14.63;;;5.90;99.90;;;;;;5045307;28;20426;-71
2024/01/06 00:31:27;;;;;;;25.50;13.25;;;6.00;99.90;;;;;;5042234;28;20127;-71
2024/01/06 00:33:55;;;;;;;32.53;15.77;;;6.00;99.90;;;;;;5043824;28;20194;-71
2024/01/06 00:36:21;;;;;;;;;;;6.00;99.90;;;;;;5047329;28;20044;-71
2024/01/06 00:38:49;;;;;;;33.38;15.10;;;5.90;99.90;;;;;;5042705;28;20361;-71
2024/01/06 00:41:17;;;;;;;35.72;15.88;;;6.00;99.90;;;;;;5040794;28;20559;-71
2024/01/06 00:43:42;;;;;;;;;;;6.00;99.90;;;;;;5041658;28;20032;-71
2024/01/06 00:46:08;;;;;;;32.63;14.88;;;6.00;99.90;;;;;;5051430;22;19921;-71
2024/01/06 00:48:34;;;;;;;33.05;15.52;;;6.00;99.90;;;;;;5064650;28;20511;-71
2024/01/06 00:50:59;;;;;;;26.13;14.02;;;6.00;99.90;;;;;;5063204;28;20031;-71
2024/01/06 00:53:25;;;;;;;30.42;14.45;;;6.00;99.90;;;;;;5063222;28;20032;-71
2024/01/06 00:55:53;;;;;;;32.78;14.52;;;5.90;99.90;;;;;;5059690;28;20036;-71
2024/01/06 00:58:20;;;;;;;30.60;14.77;;;6.00;99.90;;;;;;5067690;28;20028;-71
2024/01/06 01:00:46;;;;;;;31.65;15.50;;;5.90;99.90;;;;;;5064915;28;20028;-71
2024/01/06 01:03:12;;;;;;;30.20;15.07;;;5.90;99.90;;;;;;5064400;28;20039;-71
2024/01/06 01:05:37;;;;;;;26.38;14.02;;;5.90;99.90;;;;;;5065532;28;20035;-71
2024/01/06 01:08:03;;;;;;;29.27;14.50;;;6.00;99.90;;;;;;5064657;28;20510;-71
2024/01/06 01:10:28;;;;;;;28.02;14.35;;;5.90;99.90;;;;;;5064630;28;20060;-71
2024/01/06 01:12:54;;;;;;;28.23;14.27;;;5.90;99.90;;;;;;5068571;28;20059;-71
2024/01/06 01:15:20;;;;;;;31.08;15.02;;;5.90;99.90;;;;;;5059183;28;20033;-71
2024/01/06 01:17:45;;;;;;;31.85;14.88;;;5.90;99.90;;;;;;5065239;28;20111;-71
2024/01/06 01:20:11;;;;;;;27.63;14.02;;;5.90;99.90;;;;;;5058690;28;20025;-71
2024/01/06 01:22:39;;;;;;;33.35;15.60;;;5.90;99.90;;;;;;5064072;28;20048;-71
2024/01/06 01:25:07;;;;;;;;;;;5.90;99.90;;;;;;5049372;28;20042;-71
2024/01/06 01:27:33;;;;;;;28.10;13.13;;;5.90;99.90;;;;;;5051260;28;19908;-71
2024/01/06 01:30:02;;;;;;;28.58;14.07;;;5.90;99.90;;;;;;5066709;28;20024;-71
2024/01/06 01:32:27;;;;;;;32.85;14.73;;;5.90;99.90;;;;;;5061207;28;20056;-71
2024/01/06 01:34:53;;;;;;;29.05;14.60;;;5.90;99.90;;;;;;5069479;28;20029;-72
2024/01/06 01:37:21;;;;;;;29.02;13.95;;;5.90;99.90;;;;;;5048811;28;20122;-71
2024/01/06 01:39:47;;;;;;;;;;;5.90;99.90;;;;;;5049589;28;20028;-71
2024/01/06 01:42:12;;;;;;;32.50;15.02;;;5.90;99.90;;;;;;5066846;28;19913;-71
2024/01/06 01:44:38;;;;;;;25.15;12.55;;;5.90;99.90;;;;;;5068898;28;20102;-71
2024/01/06 01:47:05;;;;;;;31.77;15.02;;;5.90;99.90;;;;;;5065984;28;20025;-71
2024/01/06 01:49:32;;;;;;;31.48;14.32;;;5.90;99.90;;;;;;5067519;28;20036;-71
2024/01/06 01:51:58;;;;;;;28.95;13.65;;;5.90;99.90;;;;;;5061951;28;20063;-71
2024/01/06 01:54:23;;;;;;;28.42;13.85;;;5.90;99.90;;;;;;5064113;28;20376;-71
2024/01/06 01:56:49;;;;;;;27.55;14.27;;;5.90;99.90;;;;;;5065804;28;20073;-71
2024/01/06 01:59:18;;;;;;;31.23;13.93;;;5.90;99.90;;;;;;5065553;28;20043;-71
2024/01/06 02:01:44;;;;;;;28.05;13.13;;;5.90;99.90;;;;;;5059393;28;20112;-71
2024/01/06 02:04:10;;;;;;;32.17;15.18;;;5.90;99.90;;;;;;5064903;28;20543;-70
2024/01/06 02:06:35;;;;;;;29.90;13.88;;;5.90;99.90;;;;;;5065007;28;20029;-70
2024/01/06 02:09:01;;;;;;;24.55;12.63;;;5.80;99.90;;;;;;5067060;28;20616;-70
2024/01/06 02:11:29;;;;;;;31.25;13.93;;;5.90;99.90;;;;;;5063077;28;20063;-70
2024/01/06 02:13:58;;;;;;;25.42;13.40;;;5.90;99.90;;;;;;5057796;28;20037;-70
2024/01/06 02:16:23;;;;;;;;;;;5.90;99.90;;;;;;5066059;28;20028;-70
2024/01/06 02:18:49;;;;;;;26.35;12.88;;;5.90;99.90;;;;;;5065081;28;19913;-69
2024/01/06 02:21:17;;;;;;;26.70;12.95;;;5.90;99.90;;;;;;5064231;28;20036;-70
2024/01/06 02:23:42;;;;;;;;;;;5.90;99.90;;;;;;5067867;28;20028;-70
2024/01/06 02:26:11;;;;;;;33.00;12.43;;;5.80;99.90;;;;;;5066419;28;19912;-70
2024/01/06 02:28:37;;;;;;;29.20;13.88;;;5.80;99.90;;;;;;5063809;28;20025;-71
2024/01/06 02:31:05;;;;;;;26.17;12.90;;;5.80;99.90;;;;;;5058693;28;20048;-70
2024/01/06 02:33:30;;;;;;;;;;;5.80;99.90;;;;;;5066765;28;20532;-70
2024/01/06 02:35:58;;;;;;;27.38;13.25;;;5.80;99.90;;;;;;5066272;28;19916;-70
2024/01/06 02:38:23;;;;;;;26.10;13.02;;;5.80;99.90;;;;;;5046298;28;20051;-70
2024/01/06 02:40:49;;;;;;;27.67;13.98;;;5.80;99.90;;;;;;5066436;28;20522;-70
2024/01/06 02:43:15;;;;;;;35.00;14.40;;;5.80;99.90;;;;;;5067538;28;20174;-70
2024/01/06 02:45:40;;;;;;;29.33;13.95;;;5.80;99.90;;;;;;5063678;28;20090;-70
2024/01/06 02:48:06;;;;;;;28.63;13.25;;;5.80;99.90;;;;;;5062874;28;20167;-70
2024/01/06 02:50:31;;;;;;;33.60;15.45;;;5.70;99.90;;;;;;5065691;28;20127;-69
2024/01/06 02:52:57;;;;;;;27.80;13.13;;;5.70;99.90;;;;;;5061701;28;20040;-70
2024/01/06 02:55:23;;;;;;;33.05;13.27;;;5.70;99.90;;;;;;5063073;28;20028;-70
2024/01/06 02:57:50;;;;;;;29.98;14.40;;;5.70;99.90;;;;;;5066886;28;20111;-70
2024/01/06 03:00:16;;;;;;;28.30;13.95;;;5.70;99.90;;;;;;5063634;28;20023;-70
2024/01/06 03:02:42;;;;;;;31.05;13.95;;;5.70;99.90;;;;;;5067357;28;20544;-70
2024/01/06 03:05:13;;;;;;;34.13;15.43;;;5.70;99.90;;;;;;5065001;28;20078;-70
2024/01/06 03:07:38;;;;;;;32.83;14.82;;;5.60;99.90;;;;;;5059182;28;20031;-70
2024/01/06 03:10:04;;;;;;;38.58;16.00;;;5.70;99.90;;;;;;5064258;28;21693;-70
2024/01/06 03:12:30;;;;;;;33.47;14.23;;;5.70;99.90;;;;;;5070026;28;20047;-70
2024/01/06 03:14:55;;;;;;;31.23;14.50;;;5.70;99.90;;;;;;5062069;28;20112;-70
2024/01/06 03:17:21;;;;;;;33.60;14.65;;;5.60;99.90;;;;;;5064902;28;20163;-70
2024/01/06 03:19:49;;;;;;;36.65;14.40;;;5.70;99.90;;;;;;5048363;28;20024;-70
2024/01/06 03:22:15;;;;;;;33.80;15.57;;;5.60;99.90;;;;;;5063720;28;20028;-70
2024/01/06 03:24:40;;;;;;;34.30;14.15;;;5.70;99.90;;;;;;5044553;28;20042;-70
2024/01/06 03:27:06;;;;;;;31.67;15.05;;;5.70;99.90;;;;;;5063269;28;20054;-70
2024/01/06 03:29:34;;;;;;;35.47;16.30;;;5.60;99.90;;;;;;5065836;28;20078;-70
2024/01/06 03:32:02;;;;;;;31.75;15.23;;;5.60;99.90;;;;;;5065602;28;20043;-70
2024/01/06 03:34:27;;;;;;;34.15;16.40;;;5.60;99.90;;;;;;5063118;28;20032;-71
2024/01/06 03:36:53;;;;;;;33.53;15.57;;;5.60;99.90;;;;;;5066611;28;20113;-70
2024/01/06 03:39:18;;;;;;;34.58;15.50;;;5.60;99.90;;;;;;5063223;28;20031;-70
2024/01/06 03:41:44;;;;;;;38.35;15.82;;;5.60;99.90;;;;;;5064817;28;20039;-70
2024/01/06 03:44:12;;;;;;;36.97;15.57;;;5.60;99.90;;;;;;5063917;28;20024;-70
2024/01/06 03:46:37;;;;;;;32.63;15.13;;;5.60;99.90;;;;;;5061369;28;20037;-70
2024/01/06 03:49:03;;;;;;;38.15;15.73;;;5.50;99.90;;;;;;5060932;28;20032;-70
2024/01/06 03:51:29;;;;;;;32.85;15.27;;;5.50;99.90;;;;;;5064430;28;20020;-70
2024/01/06 03:53:57;;;;;;;38.47;16.08;;;5.50;99.90;;;;;;5066540;28;20032;-70
2024/01/06 03:56:25;;;;;;;;;;;5.50;99.90;;;;;;5064570;28;20126;-70
2024/01/06 03:58:51;;;;;;;33.25;15.77;;;5.50;99.90;;;;;;5060999;28;19932;-70
2024/01/06 04:01:16;;;;;;;39.80;16.02;;;5.50;99.90;;;;;;5066400;28;20040;-70
2024/01/06 04:03:44;;;;;;;34.58;15.88;;;5.50;99.90;;;;;;5065321;28;20491;-70
2024/01/06 04:06:12;;;;;;;42.13;17.35;;;5.50;99.90;;;;;;5063136;28;20040;-70
2024/01/06 04:08:40;;;;;;;37.30;15.20;;;5.50;99.90;;;;;;5063254;28;20547;-70
2024/01/06 04:11:08;;;;;;;39.45;16.38;;;5.50;99.90;;;;;;5069545;28;20619;-70
2024/01/06 04:13:34;;;;;;;;;;;5.40;99.90;;;;;;5066003;28;20028;-70
2024/01/06 04:15:59;;;;;;;32.92;14.77;;;5.40;99.90;;;;;;5063970;28;19912;-70
2024/01/06 04:18:27;;;;;;;37.67;15.63;;;5.40;99.90;;;;;;5054954;28;20110;-70
2024/01/06 04:20:53;;;;;;;;;;;5.40;99.90;;;;;;5064334;28;20028;-70
2024/01/06 04:23:18;;;;;;;32.03;14.65;;;5.50;99.90;;;;;;5065040;28;19912;-70
2024/01/06 04:25:44;;;;;;;35.35;14.90;;;5.40;99.90;;;;;;5065674;28;20025;-70
2024/01/06 04:28:12;;;;;;;36.15;16.60;;;5.40;99.90;;;;;;5062161;28;20531;-70
2024/01/06 04:30:39;;;;;;;41.05;16.70;;;5.40;99.90;;;;;;5065218;28;20029;-70
2024/01/06 04:33:05;;;;;;;36.40;16.95;;;5.40;99.90;;;;;;5061839;28;20270;-70
2024/01/06 04:35:31;;;;;;;37.97;16.33;;;5.40;99.90;;;;;;5064426;28;20197;-70
2024/01/06 04:37:59;;;;;;;37.58;16.92;;;5.40;99.90;;;;;;5065433;28;20602;-70
2024/01/06 04:40:24;;;;;;;37.50;18.15;;;5.40;99.90;;;;;;5039748;28;20025;-70
2024/01/06 04:42:50;;;;;;;38.92;15.75;;;5.30;99.90;;;;;;5063193;28;20559;-70
2024/01/06 04:45:16;;;;;;;35.25;14.85;;;5.40;99.90;;;;;;5066665;28;20078;-69
2024/01/06 04:47:41;;;;;;;38.80;16.67;;;5.40;99.90;;;;;;5064571;28;20061;-70
2024/01/06 04:50:09;;;;;;;38.78;16.25;;;5.40;99.90;;;;;;5062193;28;20040;-70
2024/01/06 04:52:35;;;;;;;;;;;5.40;99.90;;;;;;5063851;28;20102;-70
2024/01/06 04:55:01;;;;;;;34.50;15.38;;;5.40;99.90;;;;;;5059613;28;20255;-70
2024/01/06 04:57:29;;;;;;;37.65;16.52;;;5.30;99.90;;;;;;5061494;28;20471;-70
2024/01/06 04:59:54;;;;;;;41.20;17.05;;;5.40;99.90;;;;;;5062250;28;20029;-70
2024/01/06 05:02:20;;;;;;;40.30;17.25;;;5.30;99.90;;;;;;5068213;28;20055;-70
2024/01/06 05:04:46;;;;;;;33.58;15.90;;;5.40;99.90;;;;;;5067554;28;20020;-70
2024/01/06 05:07:11;;;;;;;39.38;17.33;;;5.40;99.90;;;;;;5069690;28;20098;-70
2024/01/06 05:09:37;;;;;;;39.80;17.05;;;5.40;99.90;;;;;;5062391;28;20502;-70
2024/01/06 05:12:02;;;;;;;40.45;16.42;;;5.40;99.90;;;;;;5061100;28;20098;-70
2024/01/06 05:14:30;;;;;;;40.13;16.98;;;5.30;99.90;;;;;;5064579;28;20032;-70
2024/01/06 05:16:56;;;;;;;;;;;5.40;99.90;;;;;;5068436;28;20017;-70
2024/01/06 05:19:21;;;;;;;39.10;16.65;;;5.30;99.90;;;;;;5053355;28;19985;-70
2024/01/06 05:21:48;;;;;;;39.50;16.70;;;5.30;99.90;;;;;;5067464;28;20380;-70
2024/01/06 05:24:13;;;;;;;42.10;16.52;;;5.40;99.90;;;;;;5064572;28;20029;-70
2024/01/06 05:26:41;;;;;;;41.38;17.20;;;5.30;99.90;;;;;;5059078;28;20032;-70
2024/01/06 05:29:07;;;;;;;41.35;17.65;;;5.40;99.90;;;;;;5069386;28;20043;-70
2024/01/06 05:31:35;;;;;;;38.20;15.57;;;5.30;99.90;;;;;;5065124;28;20040;-70
2024/01/06 05:34:01;;;;;;;36.83;16.38;;;5.30;99.90;;;;;;5063900;28;20020;-70
2024/01/06 05:36:26;;;;;;;40.70;17.05;;;5.30;99.90;;;;;;5063030;28;20411;-70
2024/01/06 05:38:52;;;;;;;42.65;17.15;;;5.40;99.90;;;;;;5059913;28;20123;-70
2024/01/06 05:41:17;;;;;;;40.72;17.73;;;5.40;99.90;;;;;;5059276;28;20032;-70
2024/01/06 05:43:47;;;;;;;43.13;17.55;;;5.40;99.90;;;;;;5066284;28;20054;-70
2024/01/06 05:46:26;;;;;;;39.05;15.80;;;5.40;99.90;;;;;;5065131;28;20025;-69
2024/01/06 05:48:51;;;;;;;38.13;15.35;;;5.30;99.90;;;;;;5068058;28;20029;-69
2024/01/06 05:51:17;;;;;;;46.10;20.75;;;5.30;99.90;;;;;;5066337;28;20023;-70
2024/01/06 05:53:43;;;;;;;40.38;16.48;;;5.30;99.90;;;;;;5066009;28;20029;-70
2024/01/06 05:56:10;;;;;;;35.47;15.50;;;5.30;99.90;;;;;;5068593;28;20395;-70
2024/01/06 05:58:39;;;;;;;37.28;15.98;;;5.30;99.90;;;;;;5068392;28;20461;-70
2024/01/06 06:01:05;;;;;;;42.53;17.08;;;5.30;99.90;;;;;;5068679;28;20039;-70
2024/01/06 06:03:33;;;;;;;47.45;18.75;;;5.40;99.90;;;;;;5066804;28;20024;-70
2024/01/06 06:06:01;;;;;;;47.83;17.15;;;5.40;99.90;;;;;;5071888;28;20367;-70
2024/01/06 06:08:26;;;;;;;37.83;16.15;;;5.30;99.90;;;;;;5062347;28;20047;-69
2024/01/06 06:11:01;;;;;;;46.70;17.38;;;5.30;99.90;;;;;;5065563;28;20438;-70
2024/01/06 06:13:28;;;;;;;37.85;16.48;;;5.30;99.90;;;;;;5064822;28;20665;-70
2024/01/06 06:15:53;;;;;;;46.95;17.33;;;5.30;99.90;;;;;;5066777;28;20115;-70
2024/01/06 06:18:19;;;;;;;46.10;18.73;;;5.30;99.90;;;;;;5064979;28;20112;-70
2024/01/06 06:20:44;;;;;;;44.47;17.63;;;5.30;99.90;;;;;;5066847;28;20024;-71
2024/01/06 06:23:10;;;;;;;41.42;17.55;;;5.30;99.90;;;;;;5065484;28;20020;-70
2024/01/06 06:25:39;;;;;;;48.53;18.27;;;5.30;99.90;;;;;;5048568;28;20102;-70
2024/01/06 06:28:05;;;;;;;42.55;17.58;;;5.30;99.90;;;;;;5072051;28;20043;-70
2024/01/06 06:30:32;;;;;;;42.55;17.63;;;5.30;99.90;;;;;;5044306;28;20051;-69
2024/01/06 06:32:58;;;;;;;44.53;18.02;;;5.30;99.90;;;;;;5048977;28;20032;-70
2024/01/06 06:35:24;;;;;;;49.92;18.33;;;5.30;99.90;;;;;;5063477;28;20045;-70
2024/01/06 06:37:50;;;;;;;44.80;18.30;;;5.20;99.90;;;;;;5063083;28;20052;-70
2024/01/06 06:40:15;;;;;;;45.90;18.40;;;5.30;99.90;;;;;;5062395;28;20013;-70
2024/01/06 06:42:41;;;;;;;44.85;17.55;;;5.30;99.90;;;;;;5065335;28;20541;-70
2024/01/06 06:45:07;;;;;;;42.65;18.50;;;5.30;99.90;;;;;;5067512;28;20041;-70
2024/01/06 06:47:35;;;;;;;47.80;18.70;;;5.30;99.90;;;;;;5051706;22;20118;-70
2024/01/06 06:50:04;;;;;;;41.63;17.23;;;5.30;99.90;;;;;;5043328;28;20044;-70
2024/01/06 06:52:29;;;;;;;45.35;18.45;;;5.30;99.90;;;;;;5044143;28;20474;-74
2024/01/06 06:54:55;;;;;;;46.67;19.23;;;5.30;99.90;;;;;;5046651;28;20124;-75
2024/01/06 06:57:23;;;;;;;45.33;17.30;;;5.30;99.90;;;;;;5028500;28;20036;-75
2024/01/06 06:59:49;;;;;;;43.42;17.40;;;5.20;99.90;;;;;;5042350;28;20113;-75
2024/01/06 07:02:17;;;;;;;46.25;17.52;;;5.30;99.90;;;;;;5023819;28;20120;-74
2024/01/06 07:04:45;;;;;;;44.40;17.90;;;5.30;99.90;;;;;;5041897;28;20017;-75
2024/01/06 07:07:13;;;;;;;;;;;5.20;99.90;;;;;;5040997;28;20057;-75
2024/01/06 07:09:42;;;;;;;;;;;5.30;99.90;;;;;;5042367;28;20065;-75
2024/01/06 07:12:07;;;;;;;46.28;17.20;;;5.30;99.90;;;;;;5037471;28;20007;-75
2024/01/06 07:14:33;;;;;;;49.13;18.70;;;5.20;99.90;;;;;;5036568;28;20605;-74
2024/01/06 07:17:01;;;;;;;51.40;18.67;;;5.30;99.90;;;;;;5043607;28;20082;-74
2024/01/06 07:19:30;;;;;;;50.42;18.75;;;5.20;99.90;;;;;;5040284;28;20028;-74
2024/01/06 07:21:58;;;;;;;51.75;19.65;;;5.20;99.90;;;;;;5041308;28;20469;-75
2024/01/06 07:24:24;;;;;;;;;;;5.20;99.90;;;;;;5038984;28;20111;-75
2024/01/06 07:26:49;;;;;;;42.22;18.08;;;5.20;99.90;;;;;;5040713;28;20004;-74
2024/01/06 07:29:17;;;;;;;51.60;18.42;;;5.20;99.90;;;;;;5026933;28;20040;-75
2024/01/06 07:31:43;;;;;;;54.05;20.15;;;5.20;99.90;;;;;;5044597;28;20033;-75
2024/01/06 07:34:08;;;;;;;52.08;20.45;;;5.20;99.90;;;;;;5042224;28;20534;-75
2024/01/06 07:36:38;;;;;;;46.53;18.65;;;5.20;99.90;;;;;;5037312;28;20029;-75
2024/01/06 07:39:04;;;;;;;51.20;19.52;;;5.20;99.90;;;;;;5041826;28;20020;-74
2024/01/06 07:41:31;;;;;;;46.03;18.77;;;5.10;99.90;;;;;;5023910;28;20078;-74
2024/01/06 07:43:57;;;;;;;51.80;19.95;;;5.20;99.90;;;;;;5038406;28;20025;-75
2024/01/06 07:46:25;;;;;;;53.97;21.27;;;5.20;99.90;;;;;;5039936;28;20484;-74
2024/01/06 07:48:53;;;;;;;;;;;5.20;99.90;;;;;;5042298;28;20044;-74
2024/01/06 07:51:19;;;;;;;;;;;5.10;99.90;;;;;;5041237;28;19913;-74
2024/01/06 07:53:44;;;;;;;49.05;17.90;;;5.10;99.90;;;;;;5044294;28;19920;-74
2024/01/06 07:56:12;;;;;;;52.20;17.58;;;5.10;99.90;;;;;;5035765;28;20477;-74
2024/01/06 07:58:37;;;;;;;46.28;18.00;;;5.10;99.90;;;;;;5043188;28;20092;-74
2024/01/06 08:01:04;;;;;;;52.80;18.08;;;5.00;99.90;;;;;;5043495;28;20148;-75
2024/01/06 08:03:30;;;;;;;50.40;18.45;;;5.00;99.90;;;;;;5044224;28;20511;-74
2024/01/06 08:05:56;;;;;;;47.80;18.98;;;5.00;99.90;;;;;;5044071;28;20028;-75
2024/01/06 08:08:22;;;;;;;53.13;19.60;;;5.00;99.90;;;;;;5043827;28;20087;-75
2024/01/06 08:10:48;;;;;;;46.70;17.55;;;5.00;99.90;;;;;;5045053;28;20025;-75
2024/01/06 08:13:14;;;;;;;48.75;18.52;;;5.00;99.90;;;;;;5044499;28;20067;-75
2024/01/06 08:15:40;;;;;;;48.95;18.65;;;5.00;99.90;;;;;;5045030;28;20041;-75
2024/01/06 08:18:05;;;;;;;46.88;18.35;;;5.00;99.90;;;;;;5040567;28;20124;-75
2024/01/06 08:20:31;;;;;;;44.00;17.20;;;5.00;99.90;;;;;;5042529;28;20027;-75
2024/01/06 08:22:57;;;;;;;42.03;15.98;;;5.00;99.90;;;;;;5044387;28;20036;-75
2024/01/06 08:25:22;;;;;;;45.70;18.25;;;5.00;99.90;;;;;;5026580;28;20388;-76
2024/01/06 08:27:48;;;;;;;39.08;16.73;;;5.00;99.90;;;;;;5040288;28;20025;-75
2024/01/06 08:30:13;;;;;;;43.78;16.73;;;5.00;99.90;;;;;;5046205;28;20042;-75
2024/01/06 08:32:39;;;;;;;40.53;16.75;;;4.90;99.90;;;;;;5044627;28;20025;-76
2024/01/06 08:35:05;;;;;;;39.30;15.43;;;4.90;99.90;;;;;;5042963;28;20033;-75
2024/01/06 08:37:31;;;;;;;38.88;15.27;;;4.90;99.90;;;;;;5043498;28;20108;-77
2024/01/06 08:39:56;;;;;;;36.85;15.57;;;4.90;99.90;;;;;;5042408;28;20104;-75
2024/01/06 08:42:23;;;;;;;38.33;16.45;;;4.90;99.90;;;;;;5042153;28;20026;-77
2024/01/06 08:44:51;;;;;;;39.22;14.75;;;4.90;99.90;;;;;;5044128;28;20028;-77
2024/01/06 08:47:17;;;;;;;37.55;15.07;;;4.90;99.90;;;;;;5042644;28;20029;-77
2024/01/06 08:49:44;;;;;;;35.92;14.13;;;4.90;99.90;;;;;;5032961;28;20083;-77
2024/01/06 08:52:10;;;;;;;36.83;15.52;;;4.90;99.90;;;;;;5043031;28;20063;-77
2024/01/06 08:54:38;;;;;;;36.80;15.32;;;4.90;99.90;;;;;;5044903;28;20025;-78
2024/01/06 08:57:04;;;;;;;40.50;14.90;;;4.90;99.90;;;;;;5042803;28;20041;-77
2024/01/06 08:59:32;;;;;;;34.95;14.40;;;4.90;99.90;;;;;;5035890;28;20052;-77
2024/01/06 09:01:57;;;;;;;31.02;13.52;;;4.90;99.90;;;;;;5043541;28;20021;-77
2024/01/06 09:04:23;;;;;;;37.00;15.20;;;4.90;99.90;;;;;;5041411;28;20036;-77
2024/01/06 09:06:50;;;;;;;30.98;13.73;;;4.90;99.90;;;;;;5036628;28;20036;-75
2024/01/06 09:09:18;;;;;;;33.78;13.50;;;4.90;99.90;;;;;;5039779;28;20024;-77
2024/01/06 09:11:44;;;;;;;32.67;13.73;;;4.90;99.90;;;;;;5046227;28;20037;-77
2024/01/06 09:14:13;;;;;;;31.77;13.63;;;4.90;99.90;;;;;;5025722;28;20824;-75
2024/01/06 09:16:40;;;;;;;32.17;12.38;;;4.90;99.90;;;;;;5021391;28;20021;-77
2024/01/06 09:19:06;;;;;;;28.83;12.55;;;4.90;99.90;;;;;;5022381;28;20124;-75
2024/01/06 09:21:31;;;;;;;33.13;14.68;;;4.90;99.90;;;;;;5044329;28;20520;-77
2024/01/06 09:23:57;;;;;;;33.72;13.85;;;4.90;99.90;;;;;;5042071;28;20029;-79
2024/01/06 09:26:22;;;;;;;32.35;13.27;;;4.90;99.90;;;;;;5045884;28;20028;-75
2024/01/06 09:28:48;;;;;;;32.72;13.63;;;4.90;99.90;;;;;;5038103;28;20472;-75
2024/01/06 09:31:14;;;;;;;31.08;13.23;;;4.90;99.90;;;;;;5043460;28;20111;-75
2024/01/06 09:33:39;;;;;;;31.95;12.70;;;4.90;99.90;;;;;;5041017;28;20044;-75
2024/01/06 09:36:11;;;;;;;32.78;14.43;;;4.80;99.90;;;;;;5040738;28;20044;-75
2024/01/06 09:38:39;;;;;;;31.83;13.40;;;4.90;99.90;;;;;;5037666;28;20431;-75
2024/01/06 09:41:05;;;;;;;;;;;4.90;99.90;;;;;;5044634;28;20110;-75
2024/01/06 09:43:30;;;;;;;30.33;12.63;;;4.90;99.90;;;;;;5034726;28;20384;-75
2024/01/06 09:46:14;;;;;;;30.35;12.85;;;4.90;99.90;;;;;;5042616;28;20026;-75
2024/01/06 09:48:43;;;;;;;31.83;13.82;;;4.80;99.90;;;;;;5043245;28;20064;-75
2024/01/06 09:51:12;;;;;;;32.03;13.77;;;4.80;99.90;;;;;;5023226;28;20124;-75
2024/01/06 09:53:49;;;;;;;30.17;13.30;;;4.80;99.90;;;;;;5048288;28;20542;-76
2024/01/06 09:56:17;;;;;;;24.60;12.05;;;4.90;99.90;;;;;;5045491;28;20485;-75
2024/01/06 09:58:44;;;;;;;29.20;12.95;;;4.90;99.90;;;;;;5047485;28;20115;-76
2024/01/06 10:01:11;;;;;;;34.13;14.45;;;4.90;99.90;;;;;;5048263;28;20795;-75
2024/01/06 10:03:37;;;;;;;29.15;11.80;;;4.80;99.90;;;;;;5041710;28;20082;-75
2024/01/06 10:06:04;;;;;;;33.50;12.82;;;4.80;99.90;;;;;;5043663;28;20043;-75
2024/01/06 10:08:32;;;;;;;27.65;12.02;;;4.80;99.90;;;;;;5048673;28;20025;-77
2024/01/06 10:10:58;;;;;;;29.65;12.52;;;4.80;99.90;;;;;;5046170;28;20032;-76
2024/01/06 10:13:24;;;;;;;24.45;10.63;;;4.80;99.90;;;;;;5039701;28;20029;-75
2024/01/06 10:15:50;;;;;;;28.92;12.10;;;4.90;99.90;;;;;;5040340;28;20101;-75
2024/01/06 10:18:16;;;;;;;25.60;10.80;;;4.80;99.90;;;;;;5043079;28;20029;-76
2024/01/06 10:20:44;;;;;;;28.10;12.18;;;4.90;99.90;;;;;;5048492;28;20028;-76
2024/01/06 10:23:10;;;;;;;26.40;11.48;;;4.90;99.90;;;;;;5048755;28;20033;-75
2024/01/06 10:25:39;;;;;;;28.58;11.32;;;4.90;99.90;;;;;;5042550;28;20379;-75
2024/01/06 10:28:04;;;;;;;25.23;10.85;;;4.90;99.90;;;;;;5046838;28;20548;-76
2024/01/06 10:30:30;;;;;;;25.98;11.52;;;4.90;99.90;;;;;;5048717;28;20037;-75
2024/01/06 10:32:56;;;;;;;27.38;11.38;;;4.90;99.90;;;;;;5044766;28;20040;-76
2024/01/06 10:35:21;;;;;;;28.00;11.88;;;4.80;99.90;;;;;;5046088;28;20040;-76
2024/01/06 10:37:48;;;;;;;27.75;11.60;;;4.80;99.90;;;;;;5043502;28;20028;-75
2024/01/06 10:40:16;;;;;;;28.13;12.35;;;4.80;99.90;;;;;;5047557;28;20506;-75
2024/01/06 10:42:42;;;;;;;34.38;11.88;;;4.80;99.90;;;;;;5042314;28;20253;-75
2024/01/06 10:45:12;;;;;;;32.85;14.00;;;4.80;99.90;;;;;;5047023;28;20068;-74
2024/01/06 10:47:40;;;;;;;30.25;12.35;;;4.80;99.90;;;;;;5042520;28;20049;-74
2024/01/06 10:50:07;;;;;;;34.50;13.27;;;4.70;99.90;;;;;;5045922;28;20039;-75
2024/01/06 10:52:34;;;;;;;29.92;12.65;;;4.80;99.90;;;;;;5045712;28;20111;-75
2024/01/06 10:55:01;;;;;;;34.10;14.35;;;4.80;99.90;;;;;;5046658;28;20664;-75
2024/01/06 10:57:28;;;;;;;31.60;13.85;;;4.80;99.90;;;;;;5045836;28;20100;-75
2024/01/06 10:59:55;;;;;;;32.40;13.15;;;4.80;99.90;;;;;;5045884;28;20109;-75
2024/01/06 11:02:23;;;;;;;37.90;14.03;;;4.80;99.90;;;;;;5045783;28;20033;-75
2024/01/06 11:04:50;;;;;;;30.40;14.10;;;4.80;99.90;;;;;;5044935;28;20269;-75
2024/01/06 11:07:19;;;;;;;31.25;12.95;;;4.70;99.90;;;;;;5046235;28;20032;-75
2024/01/06 11:10:02;;;;;;;29.98;12.13;;;4.70;99.90;;;;;;5045216;28;20063;-75
2024/01/06 11:12:28;;;;;;;30.25;12.88;;;4.70;99.90;;;;;;5044455;28;20036;-75
2024/01/06 11:14:54;;;;;;;34.95;14.07;;;4.70;99.90;;;;;;5044511;28;20462;-75
2024/01/06 11:17:49;;;;;;;33.03;13.35;;;4.70;99.90;;;;;;5039694;28;20058;-76
2024/01/06 11:20:14;;;;;;;37.28;14.07;;;4.70;99.90;;;;;;5024510;28;20622;-74
2024/01/06 11:22:41;;;;;;;33.58;13.35;;;4.70;99.90;;;;;;5039550;28;20108;-74
2024/01/06 11:25:13;;;;;;;38.78;13.90;;;4.70;99.90;;;;;;5043060;28;20028;-74
2024/01/06 11:27:38;;;;;;;35.83;13.70;;;4.70;99.90;;;;;;5042423;28;20014;-74
2024/01/06 11:30:05;;;;;;;38.67;13.82;;;4.70;99.90;;;;;;5043228;28;20043;-74
2024/01/06 11:32:40;;;;;;;36.90;15.80;;;4.60;99.90;;;;;;5038434;28;20025;-74
2024/01/06 11:35:14;;;;;;;36.70;14.23;;;4.60;99.90;;;;;;5018817;28;20036;-75
2024/01/06 11:37:39;;;;;;;40.30;15.15;;;4.60;99.90;;;;;;5044341;28;20384;-75
2024/01/06 11:40:13;;;;;;;36.33;15.20;;;4.60;99.90;;;;;;5024040;28;20025;-75
2024/01/06 11:42:42;;;;;;;35.53;14.80;;;4.70;99.90;;;;;;5044980;28;20029;-79
2024/01/06 11:45:08;;;;;;;38.72;15.02;;;4.60;99.90;;;;;;5046445;28;20128;-75
2024/01/06 11:47:39;;;;;;;42.50;16.13;;;4.60;99.90;;;;;;5044778;28;20032;-75
2024/01/06 11:50:05;;;;;;;38.53;14.75;;;4.60;99.90;;;;;;5043657;28;20514;-75
2024/01/06 11:52:32;;;;;;;31.00;13.63;;;4.60;99.90;;;;;;5043994;28;20039;-75
2024/01/06 11:54:58;;;;;;;35.42;14.07;;;4.60;99.90;;;;;;5045489;28;20036;-75
2024/01/06 11:57:26;;;;;;;36.40;13.68;;;4.60;99.90;;;;;;5039812;28;20052;-75
2024/01/06 11:59:54;;;;;;;34.33;12.60;;;4.60;99.90;;;;;;5045022;28;20028;-75
2024/01/06 12:02:22;;;;;;;31.55;12.93;;;4.60;99.90;;;;;;5042843;28;20025;-74
2024/01/06 12:04:53;;;;;;;32.70;13.57;;;4.50;99.90;;;;;;5043815;28;20028;-77
2024/01/06 12:07:20;;;;;;;37.13;14.65;;;4.50;99.90;;;;;;5041129;28;20037;-77
2024/01/06 12:09:49;;;;;;;37.33;13.50;;;4.50;99.90;;;;;;5042223;28;20946;-74
2024/01/06 12:12:16;;;;;;;37.72;13.75;;;4.50;99.90;;;;;;5038323;28;20032;-76
2024/01/06 12:14:42;;;;;;;34.40;14.05;;;4.50;99.90;;;;;;5036720;28;20029;-76
2024/01/06 12:17:08;;;;;;;33.25;14.88;;;4.50;99.90;;;;;;5040309;28;20039;-76
2024/01/06 12:19:33;;;;;;;36.90;14.65;;;4.50;99.90;;;;;;5039866;28;20029;-76
2024/01/06 12:21:59;;;;;;;35.90;15.25;;;4.50;99.90;;;;;;5036240;28;20029;-76
2024/01/06 12:24:28;;;;;;;36.35;14.65;;;4.50;99.90;;;;;;5042434;28;20029;-76
2024/01/06 12:26:57;;;;;;;37.05;15.15;;;4.50;99.90;;;;;;5043834;28;20780;-76
2024/01/06 12:29:25;;;;;;;34.45;14.65;;;4.50;99.90;;;;;;5043742;28;20028;-76
2024/01/06 12:31:53;;;;;;;38.50;14.85;;;4.50;99.90;;;;;;5038701;28;20025;-76
2024/01/06 12:34:20;;;;;;;42.35;14.98;;;4.50;99.90;;;;;;5038913;28;20029;-76
2024/01/06 12:36:47;;;;;;;41.28;15.57;;;4.50;99.90;;;;;;5036071;28;20068;-76
2024/01/06 12:39:16;;;;;;;35.03;14.38;;;4.50;99.90;;;;;;5013910;28;20128;-77
2024/01/06 12:41:41;;;;;;;32.47;14.60;;;4.40;99.90;;;;;;5041372;28;20021;-77